Terminal Aerodrome Forecast
Issued by NWS Binghamton, NY

Home | Current Version | Previous Version | Text Only | Print | Product List | Glossary On
Versions: 1 2 3 4 5 6 7 8 9 10 11 12 13 14 15 16 17 18 19 20 21
000
FTUS41 KBGM 021120
TAFAVP
TAF
KAVP 021120Z 0212/0312 VRB03KT 5SM -RA BR SCT008 OVC012
      TEMPO 0212/0213 2SM TSRA BR OVC008CB
     FM021300 VRB03KT 5SM -RA BR SCT008 OVC012
      TEMPO 0213/0215 2SM RA BR OVC008
     FM021700 23005KT P6SM SCT008 OVC015
     FM022000 34008KT P6SM SCT015 OVC025=

USA.gov is the U.S. government's official web portal to all federal, state and local government web resources and services.